sensor_id;sensor_type;location;lat;lon;timestamp;P1;durP1;ratioP1;P2;durP2;ratioP2
16115;SDS011;8162;47.104;15.432;2022-07-05T00:02:01;17.07;;;11.90;;
16115;SDS011;8162;47.104;15.432;2022-07-05T00:04:27;14.43;;;11.80;;
16115;SDS011;8162;47.104;15.432;2022-07-05T00:06:53;12.87;;;11.00;;
16115;SDS011;8162;47.104;15.432;2022-07-05T00:09:37;17.17;;;12.13;;
16115;SDS011;8162;47.104;15.432;2022-07-05T00:12:02;14.27;;;11.10;;
16115;SDS011;8162;47.104;15.432;2022-07-05T00:14:29;14.43;;;11.23;;
16115;SDS011;8162;47.104;15.432;2022-07-05T00:16:55;14.03;;;10.90;;
16115;SDS011;8162;47.104;15.432;2022-07-05T00:19:20;13.10;;;10.63;;
16115;SDS011;8162;47.104;15.432;2022-07-05T00:21:46;15.80;;;11.43;;
16115;SDS011;8162;47.104;15.432;2022-07-05T00:24:12;14.40;;;11.93;;
16115;SDS011;8162;47.104;15.432;2022-07-05T00:26:38;15.20;;;12.23;;
16115;SDS011;8162;47.104;15.432;2022-07-05T00:29:03;14.47;;;11.80;;
16115;SDS011;8162;47.104;15.432;2022-07-05T00:31:29;13.87;;;12.33;;
16115;SDS011;8162;47.104;15.432;2022-07-05T00:33:55;31.97;;;13.50;;
16115;SDS011;8162;47.104;15.432;2022-07-05T00:36:20;13.90;;;11.17;;
16115;SDS011;8162;47.104;15.432;2022-07-05T00:38:46;17.30;;;12.40;;
16115;SDS011;8162;47.104;15.432;2022-07-05T00:41:12;13.17;;;10.43;;
16115;SDS011;8162;47.104;15.432;2022-07-05T00:43:50;20.77;;;10.70;;
16115;SDS011;8162;47.104;15.432;2022-07-05T00:46:20;9.03;;;8.13;;
16115;SDS011;8162;47.104;15.432;2022-07-05T00:48:46;13.67;;;10.10;;
16115;SDS011;8162;47.104;15.432;2022-07-05T00:51:11;12.37;;;9.50;;
16115;SDS011;8162;47.104;15.432;2022-07-05T00:53:37;10.43;;;9.33;;
16115;SDS011;8162;47.104;15.432;2022-07-05T00:56:04;8.87;;;8.07;;
16115;SDS011;8162;47.104;15.432;2022-07-05T00:58:30;11.50;;;9.03;;
16115;SDS011;8162;47.104;15.432;2022-07-05T01:00:58;9.50;;;8.60;;
16115;SDS011;8162;47.104;15.432;2022-07-05T01:03:27;11.30;;;8.53;;
16115;SDS011;8162;47.104;15.432;2022-07-05T01:05:52;9.53;;;7.90;;
16115;SDS011;8162;47.104;15.432;2022-07-05T01:08:19;8.07;;;7.30;;
16115;SDS011;8162;47.104;15.432;2022-07-05T01:10:47;8.67;;;7.87;;
16115;SDS011;8162;47.104;15.432;2022-07-05T01:13:13;10.30;;;8.37;;
16115;SDS011;8162;47.104;15.432;2022-07-05T01:15:39;10.77;;;9.63;;
16115;SDS011;8162;47.104;15.432;2022-07-05T01:18:06;12.70;;;9.83;;
16115;SDS011;8162;47.104;15.432;2022-07-05T01:20:33;11.93;;;9.63;;
16115;SDS011;8162;47.104;15.432;2022-07-05T01:23:00;11.00;;;9.27;;
16115;SDS011;8162;47.104;15.432;2022-07-05T01:25:28;10.80;;;8.87;;
16115;SDS011;8162;47.104;15.432;2022-07-05T01:27:54;12.27;;;10.17;;
16115;SDS011;8162;47.104;15.432;2022-07-05T01:30:21;13.90;;;10.60;;
16115;SDS011;8162;47.104;15.432;2022-07-05T01:32:48;18.33;;;11.33;;
16115;SDS011;8162;47.104;15.432;2022-07-05T01:35:14;10.93;;;9.83;;
16115;SDS011;8162;47.104;15.432;2022-07-05T01:37:48;12.47;;;10.83;;
16115;SDS011;8162;47.104;15.432;2022-07-05T01:40:16;12.23;;;11.03;;
16115;SDS011;8162;47.104;15.432;2022-07-05T01:42:42;11.27;;;10.07;;
16115;SDS011;8162;47.104;15.432;2022-07-05T01:45:08;10.93;;;9.83;;
16115;SDS011;8162;47.104;15.432;2022-07-05T01:47:35;12.13;;;10.67;;
16115;SDS011;8162;47.104;15.432;2022-07-05T01:50:04;12.03;;;10.87;;
16115;SDS011;8162;47.104;15.432;2022-07-05T01:52:31;11.97;;;10.67;;
16115;SDS011;8162;47.104;15.432;2022-07-05T01:54:58;15.13;;;11.67;;
16115;SDS011;8162;47.104;15.432;2022-07-05T01:57:26;14.27;;;11.20;;
16115;SDS011;8162;47.104;15.432;2022-07-05T01:59:52;12.63;;;11.30;;
16115;SDS011;8162;47.104;15.432;2022-07-05T02:02:18;16.10;;;12.73;;
16115;SDS011;8162;47.104;15.432;2022-07-05T02:04:44;18.90;;;13.43;;
16115;SDS011;8162;47.104;15.432;2022-07-05T02:07:09;16.13;;;13.63;;
16115;SDS011;8162;47.104;15.432;2022-07-05T02:09:36;20.50;;;14.50;;
16115;SDS011;8162;47.104;15.432;2022-07-05T02:12:02;19.13;;;15.27;;
16115;SDS011;8162;47.104;15.432;2022-07-05T02:14:29;15.57;;;13.83;;
16115;SDS011;8162;47.104;15.432;2022-07-05T02:16:55;18.73;;;14.13;;
16115;SDS011;8162;47.104;15.432;2022-07-05T02:19:20;26.10;;;14.37;;
16115;SDS011;8162;47.104;15.432;2022-07-05T02:21:46;19.00;;;14.63;;
16115;SDS011;8162;47.104;15.432;2022-07-05T02:24:12;19.17;;;13.93;;
16115;SDS011;8162;47.104;15.432;2022-07-05T02:26:37;46.93;;;14.40;;
16115;SDS011;8162;47.104;15.432;2022-07-05T02:29:03;46.27;;;16.77;;
16115;SDS011;8162;47.104;15.432;2022-07-05T02:31:29;16.77;;;13.97;;
16115;SDS011;8162;47.104;15.432;2022-07-05T02:33:55;19.53;;;13.60;;
16115;SDS011;8162;47.104;15.432;2022-07-05T02:36:21;16.97;;;13.20;;
16115;SDS011;8162;47.104;15.432;2022-07-05T02:38:47;20.07;;;12.53;;
16115;SDS011;8162;47.104;15.432;2022-07-05T02:41:13;14.70;;;12.80;;
16115;SDS011;8162;47.104;15.432;2022-07-05T02:43:39;18.33;;;12.27;;
16115;SDS011;8162;47.104;15.432;2022-07-05T02:46:05;15.33;;;12.50;;
16115;SDS011;8162;47.104;15.432;2022-07-05T02:48:33;14.00;;;12.10;;
16115;SDS011;8162;47.104;15.432;2022-07-05T02:51:00;21.87;;;15.00;;
16115;SDS011;8162;47.104;15.432;2022-07-05T02:53:26;19.07;;;12.93;;
16115;SDS011;8162;47.104;15.432;2022-07-05T02:55:52;16.23;;;10.20;;
16115;SDS011;8162;47.104;15.432;2022-07-05T02:58:18;11.87;;;9.90;;
16115;SDS011;8162;47.104;15.432;2022-07-05T03:00:44;12.47;;;10.67;;
16115;SDS011;8162;47.104;15.432;2022-07-05T03:03:12;14.23;;;12.07;;
16115;SDS011;8162;47.104;15.432;2022-07-05T03:05:38;14.70;;;12.70;;
16115;SDS011;8162;47.104;15.432;2022-07-05T03:08:04;14.60;;;11.27;;
16115;SDS011;8162;47.104;15.432;2022-07-05T03:10:30;13.37;;;10.93;;
16115;SDS011;8162;47.104;15.432;2022-07-05T03:12:56;12.13;;;10.63;;
16115;SDS011;8162;47.104;15.432;2022-07-05T03:15:21;11.63;;;10.53;;
16115;SDS011;8162;47.104;15.432;2022-07-05T03:17:47;13.73;;;11.70;;
16115;SDS011;8162;47.104;15.432;2022-07-05T03:20:13;15.90;;;12.13;;
16115;SDS011;8162;47.104;15.432;2022-07-05T03:22:38;14.87;;;10.93;;
16115;SDS011;8162;47.104;15.432;2022-07-05T03:25:05;15.33;;;11.63;;
16115;SDS011;8162;47.104;15.432;2022-07-05T03:27:31;14.10;;;11.23;;
16115;SDS011;8162;47.104;15.432;2022-07-05T03:29:57;13.20;;;11.03;;
16115;SDS011;8162;47.104;15.432;2022-07-05T03:32:22;13.73;;;11.53;;
16115;SDS011;8162;47.104;15.432;2022-07-05T03:34:48;12.27;;;11.03;;
16115;SDS011;8162;47.104;15.432;2022-07-05T03:37:14;11.20;;;9.97;;
16115;SDS011;8162;47.104;15.432;2022-07-05T03:39:40;12.27;;;11.00;;
16115;SDS011;8162;47.104;15.432;2022-07-05T03:42:05;10.80;;;9.70;;
16115;SDS011;8162;47.104;15.432;2022-07-05T03:44:31;10.30;;;9.17;;
16115;SDS011;8162;47.104;15.432;2022-07-05T03:46:58;11.07;;;9.23;;
16115;SDS011;8162;47.104;15.432;2022-07-05T03:49:24;9.97;;;9.00;;
16115;SDS011;8162;47.104;15.432;2022-07-05T03:51:50;16.40;;;9.77;;
16115;SDS011;8162;47.104;15.432;2022-07-05T03:54:15;12.23;;;10.43;;
16115;SDS011;8162;47.104;15.432;2022-07-05T03:56:41;17.20;;;11.50;;
16115;SDS011;8162;47.104;15.432;2022-07-05T03:59:06;11.30;;;10.03;;
16115;SDS011;8162;47.104;15.432;2022-07-05T04:01:32;11.37;;;10.00;;
16115;SDS011;8162;47.104;15.432;2022-07-05T04:03:58;11.30;;;10.17;;
16115;SDS011;8162;47.104;15.432;2022-07-05T04:06:24;11.93;;;10.17;;
16115;SDS011;8162;47.104;15.432;2022-07-05T04:08:49;12.53;;;10.10;;
16115;SDS011;8162;47.104;15.432;2022-07-05T04:11:15;14.03;;;9.93;;
16115;SDS011;8162;47.104;15.432;2022-07-05T04:13:41;11.60;;;10.30;;
16115;SDS011;8162;47.104;15.432;2022-07-05T04:16:08;11.20;;;9.97;;
16115;SDS011;8162;47.104;15.432;2022-07-05T04:18:34;13.80;;;10.33;;
16115;SDS011;8162;47.104;15.432;2022-07-05T04:21:01;23.93;;;11.63;;
16115;SDS011;8162;47.104;15.432;2022-07-05T04:23:27;11.67;;;10.47;;
16115;SDS011;8162;47.104;15.432;2022-07-05T04:25:53;13.23;;;10.43;;
16115;SDS011;8162;47.104;15.432;2022-07-05T04:28:19;12.80;;;11.43;;
16115;SDS011;8162;47.104;15.432;2022-07-05T04:30:45;11.17;;;10.07;;
16115;SDS011;8162;47.104;15.432;2022-07-05T04:33:10;11.50;;;10.20;;
16115;SDS011;8162;47.104;15.432;2022-07-05T04:35:36;10.87;;;9.83;;
16115;SDS011;8162;47.104;15.432;2022-07-05T04:38:01;15.73;;;10.27;;
16115;SDS011;8162;47.104;15.432;2022-07-05T04:40:27;13.50;;;10.63;;
16115;SDS011;8162;47.104;15.432;2022-07-05T04:42:53;13.23;;;11.83;;
16115;SDS011;8162;47.104;15.432;2022-07-05T04:45:18;14.87;;;12.83;;
16115;SDS011;8162;47.104;15.432;2022-07-05T04:47:44;16.27;;;12.47;;
16115;SDS011;8162;47.104;15.432;2022-07-05T04:50:10;15.23;;;13.70;;
16115;SDS011;8162;47.104;15.432;2022-07-05T04:52:36;15.73;;;13.53;;
16115;SDS011;8162;47.104;15.432;2022-07-05T04:55:02;16.80;;;14.57;;
16115;SDS011;8162;47.104;15.432;2022-07-05T04:57:35;15.57;;;13.93;;
16115;SDS011;8162;47.104;15.432;2022-07-05T05:00:05;18.10;;;14.90;;
16115;SDS011;8162;47.104;15.432;2022-07-05T05:02:32;16.27;;;13.83;;
16115;SDS011;8162;47.104;15.432;2022-07-05T05:04:58;17.07;;;14.70;;
16115;SDS011;8162;47.104;15.432;2022-07-05T05:07:24;15.63;;;14.13;;
16115;SDS011;8162;47.104;15.432;2022-07-05T05:09:49;15.50;;;13.70;;
16115;SDS011;8162;47.104;15.432;2022-07-05T05:12:15;15.93;;;14.07;;
16115;SDS011;8162;47.104;15.432;2022-07-05T05:14:41;14.10;;;12.73;;
16115;SDS011;8162;47.104;15.432;2022-07-05T05:17:06;17.50;;;15.27;;
16115;SDS011;8162;47.104;15.432;2022-07-05T05:19:32;19.53;;;16.57;;
16115;SDS011;8162;47.104;15.432;2022-07-05T05:21:58;18.40;;;15.93;;
16115;SDS011;8162;47.104;15.432;2022-07-05T05:24:23;19.53;;;16.23;;
16115;SDS011;8162;47.104;15.432;2022-07-05T05:26:49;16.00;;;14.40;;
16115;SDS011;8162;47.104;15.432;2022-07-05T05:29:16;19.07;;;16.23;;
16115;SDS011;8162;47.104;15.432;2022-07-05T05:31:42;18.53;;;16.73;;
16115;SDS011;8162;47.104;15.432;2022-07-05T05:34:07;16.40;;;14.87;;
16115;SDS011;8162;47.104;15.432;2022-07-05T05:36:33;17.63;;;14.57;;
16115;SDS011;8162;47.104;15.432;2022-07-05T05:39:00;13.73;;;12.40;;
16115;SDS011;8162;47.104;15.432;2022-07-05T05:41:26;11.13;;;10.13;;
16115;SDS011;8162;47.104;15.432;2022-07-05T05:43:51;12.43;;;10.60;;
16115;SDS011;8162;47.104;15.432;2022-07-05T05:46:17;11.23;;;10.07;;
16115;SDS011;8162;47.104;15.432;2022-07-05T05:48:43;12.60;;;11.30;;
16115;SDS011;8162;47.104;15.432;2022-07-05T05:51:08;13.47;;;12.17;;
16115;SDS011;8162;47.104;15.432;2022-07-05T05:53:34;12.83;;;11.63;;
16115;SDS011;8162;47.104;15.432;2022-07-05T05:55:59;12.30;;;11.10;;
16115;SDS011;8162;47.104;15.432;2022-07-05T05:58:25;11.67;;;10.57;;
16115;SDS011;8162;47.104;15.432;2022-07-05T06:00:51;10.97;;;9.97;;
16115;SDS011;8162;47.104;15.432;2022-07-05T06:03:18;10.93;;;9.90;;
16115;SDS011;8162;47.104;15.432;2022-07-05T06:05:44;11.60;;;10.50;;
16115;SDS011;8162;47.104;15.432;2022-07-05T06:08:10;11.83;;;10.73;;
16115;SDS011;8162;47.104;15.432;2022-07-05T06:10:36;12.27;;;11.17;;
16115;SDS011;8162;47.104;15.432;2022-07-05T06:13:03;13.97;;;11.80;;
16115;SDS011;8162;47.104;15.432;2022-07-05T06:15:30;13.73;;;12.43;;
16115;SDS011;8162;47.104;15.432;2022-07-05T06:17:56;12.93;;;11.63;;
16115;SDS011;8162;47.104;15.432;2022-07-05T06:20:26;13.70;;;12.40;;
16115;SDS011;8162;47.104;15.432;2022-07-05T06:22:54;16.40;;;12.47;;
16115;SDS011;8162;47.104;15.432;2022-07-05T06:25:21;14.57;;;12.80;;
16115;SDS011;8162;47.104;15.432;2022-07-05T06:27:47;14.50;;;13.10;;
16115;SDS011;8162;47.104;15.432;2022-07-05T06:30:16;16.50;;;13.63;;
16115;SDS011;8162;47.104;15.432;2022-07-05T06:32:44;15.07;;;13.57;;
16115;SDS011;8162;47.104;15.432;2022-07-05T06:35:10;14.50;;;13.10;;
16115;SDS011;8162;47.104;15.432;2022-07-05T06:37:44;13.43;;;12.13;;
16115;SDS011;8162;47.104;15.432;2022-07-05T06:40:12;14.33;;;12.93;;
16115;SDS011;8162;47.104;15.432;2022-07-05T06:42:39;14.70;;;13.20;;
16115;SDS011;8162;47.104;15.432;2022-07-05T06:45:05;13.50;;;12.10;;
16115;SDS011;8162;47.104;15.432;2022-07-05T06:47:32;14.50;;;13.00;;
16115;SDS011;8162;47.104;15.432;2022-07-05T06:49:58;15.40;;;13.40;;
16115;SDS011;8162;47.104;15.432;2022-07-05T06:52:24;13.73;;;12.43;;
16115;SDS011;8162;47.104;15.432;2022-07-05T06:54:50;16.30;;;14.70;;
16115;SDS011;8162;47.104;15.432;2022-07-05T06:57:19;16.80;;;15.00;;
16115;SDS011;8162;47.104;15.432;2022-07-05T06:59:48;18.47;;;16.07;;
16115;SDS011;8162;47.104;15.432;2022-07-05T07:02:14;20.50;;;17.57;;
16115;SDS011;8162;47.104;15.432;2022-07-05T07:04:40;21.23;;;18.70;;
16115;SDS011;8162;47.104;15.432;2022-07-05T07:07:06;21.17;;;17.13;;
16115;SDS011;8162;47.104;15.432;2022-07-05T07:09:55;17.47;;;15.67;;
16115;SDS011;8162;47.104;15.432;2022-07-05T07:12:21;16.87;;;15.17;;
16115;SDS011;8162;47.104;15.432;2022-07-05T07:14:47;16.20;;;14.50;;
16115;SDS011;8162;47.104;15.432;2022-07-05T07:17:13;13.20;;;12.00;;
16115;SDS011;8162;47.104;15.432;2022-07-05T07:19:38;14.43;;;13.13;;
16115;SDS011;8162;47.104;15.432;2022-07-05T07:22:04;12.33;;;10.60;;
16115;SDS011;8162;47.104;15.432;2022-07-05T07:24:30;11.80;;;10.60;;
16115;SDS011;8162;47.104;15.432;2022-07-05T07:26:55;11.17;;;10.17;;
16115;SDS011;8162;47.104;15.432;2022-07-05T07:29:31;12.23;;;11.07;;
16115;SDS011;8162;47.104;15.432;2022-07-05T07:31:57;11.40;;;10.27;;
16115;SDS011;8162;47.104;15.432;2022-07-05T07:34:25;8.93;;;8.07;;
16115;SDS011;8162;47.104;15.432;2022-07-05T07:36:52;11.17;;;7.80;;
16115;SDS011;8162;47.104;15.432;2022-07-05T07:39:18;9.83;;;8.83;;
16115;SDS011;8162;47.104;15.432;2022-07-05T07:41:44;8.63;;;7.73;;
16115;SDS011;8162;47.104;15.432;2022-07-05T07:44:10;8.73;;;7.93;;
16115;SDS011;8162;47.104;15.432;2022-07-05T07:46:36;9.00;;;8.17;;
16115;SDS011;8162;47.104;15.432;2022-07-05T07:49:04;8.43;;;7.53;;
16115;SDS011;8162;47.104;15.432;2022-07-05T07:51:30;9.47;;;7.33;;
16115;SDS011;8162;47.104;15.432;2022-07-05T07:53:56;8.07;;;6.70;;
16115;SDS011;8162;47.104;15.432;2022-07-05T07:56:21;7.83;;;7.10;;
16115;SDS011;8162;47.104;15.432;2022-07-05T07:58:47;8.20;;;7.40;;
16115;SDS011;8162;47.104;15.432;2022-07-05T08:01:13;6.80;;;6.10;;
16115;SDS011;8162;47.104;15.432;2022-07-05T08:03:39;7.80;;;6.67;;
16115;SDS011;8162;47.104;15.432;2022-07-05T08:06:06;7.13;;;6.43;;
16115;SDS011;8162;47.104;15.432;2022-07-05T08:08:33;7.87;;;7.17;;
16115;SDS011;8162;47.104;15.432;2022-07-05T08:10:59;8.07;;;6.67;;
16115;SDS011;8162;47.104;15.432;2022-07-05T08:13:25;7.83;;;7.13;;
16115;SDS011;8162;47.104;15.432;2022-07-05T08:15:51;6.60;;;6.00;;
16115;SDS011;8162;47.104;15.432;2022-07-05T08:18:17;7.73;;;5.83;;
16115;SDS011;8162;47.104;15.432;2022-07-05T08:21:01;6.50;;;5.83;;
16115;SDS011;8162;47.104;15.432;2022-07-05T08:23:45;5.50;;;5.00;;
16115;SDS011;8162;47.104;15.432;2022-07-05T08:26:11;6.43;;;5.83;;
16115;SDS011;8162;47.104;15.432;2022-07-05T08:28:37;6.40;;;5.80;;
16115;SDS011;8162;47.104;15.432;2022-07-05T08:31:02;5.40;;;4.97;;
16115;SDS011;8162;47.104;15.432;2022-07-05T08:33:28;4.57;;;4.17;;
16115;SDS011;8162;47.104;15.432;2022-07-05T08:35:53;3.73;;;3.20;;
16115;SDS011;8162;47.104;15.432;2022-07-05T08:38:19;3.60;;;3.30;;
16115;SDS011;8162;47.104;15.432;2022-07-05T08:40:46;6.77;;;4.37;;
16115;SDS011;8162;47.104;15.432;2022-07-05T08:43:15;5.43;;;4.93;;
16115;SDS011;8162;47.104;15.432;2022-07-05T08:45:44;4.80;;;4.23;;
16115;SDS011;8162;47.104;15.432;2022-07-05T08:48:11;2.20;;;2.00;;
16115;SDS011;8162;47.104;15.432;2022-07-05T08:50:39;2.43;;;2.03;;
16115;SDS011;8162;47.104;15.432;2022-07-05T08:53:05;1.50;;;1.37;;
16115;SDS011;8162;47.104;15.432;2022-07-05T08:55:31;3.17;;;2.20;;
16115;SDS011;8162;47.104;15.432;2022-07-05T08:57:58;2.30;;;2.10;;
16115;SDS011;8162;47.104;15.432;2022-07-05T09:00:24;2.00;;;1.90;;
16115;SDS011;8162;47.104;15.432;2022-07-05T09:02:50;2.50;;;2.30;;
16115;SDS011;8162;47.104;15.432;2022-07-05T09:05:17;2.80;;;2.60;;
16115;SDS011;8162;47.104;15.432;2022-07-05T09:07:48;3.97;;;3.40;;
16115;SDS011;8162;47.104;15.432;2022-07-05T09:10:26;3.83;;;3.53;;
16115;SDS011;8162;47.104;15.432;2022-07-05T09:12:54;4.40;;;3.83;;
16115;SDS011;8162;47.104;15.432;2022-07-05T09:15:21;6.37;;;3.23;;
16115;SDS011;8162;47.104;15.432;2022-07-05T09:17:47;4.27;;;3.60;;
16115;SDS011;8162;47.104;15.432;2022-07-05T09:20:14;2.10;;;1.90;;
16115;SDS011;8162;47.104;15.432;2022-07-05T09:22:54;4.63;;;1.87;;
16115;SDS011;8162;47.104;15.432;2022-07-05T09:25:27;1.70;;;1.60;;
16115;SDS011;8162;47.104;15.432;2022-07-05T09:33:08;4.13;;;1.97;;
16115;SDS011;8162;47.104;15.432;2022-07-05T09:35:39;5.23;;;2.10;;
16115;SDS011;8162;47.104;15.432;2022-07-05T09:38:19;2.20;;;2.00;;
16115;SDS011;8162;47.104;15.432;2022-07-05T09:40:56;3.17;;;1.80;;
16115;SDS011;8162;47.104;15.432;2022-07-05T09:43:24;1.90;;;1.70;;
16115;SDS011;8162;47.104;15.432;2022-07-05T09:45:55;2.10;;;1.50;;
16115;SDS011;8162;47.104;15.432;2022-07-05T09:48:30;2.17;;;1.30;;
16115;SDS011;8162;47.104;15.432;2022-07-05T09:51:18;1.23;;;1.00;;
16115;SDS011;8162;47.104;15.432;2022-07-05T09:53:50;1.17;;;1.07;;
16115;SDS011;8162;47.104;15.432;2022-07-05T09:56:17;1.10;;;0.90;;
16115;SDS011;8162;47.104;15.432;2022-07-05T09:58:43;0.80;;;0.80;;
16115;SDS011;8162;47.104;15.432;2022-07-05T10:01:29;2.13;;;0.93;;
16115;SDS011;8162;47.104;15.432;2022-07-05T10:03:58;2.73;;;1.10;;
16115;SDS011;8162;47.104;15.432;2022-07-05T10:06:27;1.57;;;0.87;;
16115;SDS011;8162;47.104;15.432;2022-07-05T10:08:54;0.80;;;0.80;;
16115;SDS011;8162;47.104;15.432;2022-07-05T10:11:20;0.67;;;0.67;;
16115;SDS011;8162;47.104;15.432;2022-07-05T10:13:47;0.63;;;0.63;;
16115;SDS011;8162;47.104;15.432;2022-07-05T10:16:18;0.50;;;0.50;;
16115;SDS011;8162;47.104;15.432;2022-07-05T10:18:45;0.83;;;0.80;;
16115;SDS011;8162;47.104;15.432;2022-07-05T10:21:12;0.97;;;0.83;;
16115;SDS011;8162;47.104;15.432;2022-07-05T10:23:42;2.50;;;0.60;;
16115;SDS011;8162;47.104;15.432;2022-07-05T10:26:10;0.60;;;0.60;;
16115;SDS011;8162;47.104;15.432;2022-07-05T10:28:38;0.73;;;0.50;;
16115;SDS011;8162;47.104;15.432;2022-07-05T10:31:10;0.80;;;0.63;;
16115;SDS011;8162;47.104;15.432;2022-07-05T10:33:39;0.73;;;0.60;;
16115;SDS011;8162;47.104;15.432;2022-07-05T10:36:05;0.40;;;0.40;;
16115;SDS011;8162;47.104;15.432;2022-07-05T10:38:36;2.60;;;0.70;;
16115;SDS011;8162;47.104;15.432;2022-07-05T10:41:05;0.60;;;0.53;;
16115;SDS011;8162;47.104;15.432;2022-07-05T10:43:33;0.43;;;0.37;;
16115;SDS011;8162;47.104;15.432;2022-07-05T10:45:59;0.47;;;0.47;;
16115;SDS011;8162;47.104;15.432;2022-07-05T10:48:25;0.50;;;0.50;;
16115;SDS011;8162;47.104;15.432;2022-07-05T10:50:56;0.43;;;0.43;;
16115;SDS011;8162;47.104;15.432;2022-07-05T10:53:24;0.50;;;0.50;;
16115;SDS011;8162;47.104;15.432;2022-07-05T10:58:33;1.20;;;0.73;;
16115;SDS011;8162;47.104;15.432;2022-07-05T11:04:05;0.57;;;0.50;;
16115;SDS011;8162;47.104;15.432;2022-07-05T11:14:47;0.50;;;0.40;;
16115;SDS011;8162;47.104;15.432;2022-07-05T11:19:34;0.63;;;0.50;;
16115;SDS011;8162;47.104;15.432;2022-07-05T11:22:20;1.00;;;0.50;;
16115;SDS011;8162;47.104;15.432;2022-07-05T11:24:46;4.30;;;0.70;;
16115;SDS011;8162;47.104;15.432;2022-07-05T11:27:12;0.40;;;0.40;;
16115;SDS011;8162;47.104;15.432;2022-07-05T11:32:16;1.03;;;0.50;;
16115;SDS011;8162;47.104;15.432;2022-07-05T11:40:34;4.00;;;2.33;;
16115;SDS011;8162;47.104;15.432;2022-07-05T11:43:02;12.37;;;5.67;;
16115;SDS011;8162;47.104;15.432;2022-07-05T11:45:29;10.67;;;4.23;;
16115;SDS011;8162;47.104;15.432;2022-07-05T11:47:55;5.93;;;1.93;;
16115;SDS011;8162;47.104;15.432;2022-07-05T11:50:26;2.77;;;1.10;;
16115;SDS011;8162;47.104;15.432;2022-07-05T11:52:56;4.17;;;1.50;;
16115;SDS011;8162;47.104;15.432;2022-07-05T11:55:24;0.83;;;0.63;;
16115;SDS011;8162;47.104;15.432;2022-07-05T11:57:52;1.20;;;0.67;;
16115;SDS011;8162;47.104;15.432;2022-07-05T12:00:25;5.27;;;2.77;;
16115;SDS011;8162;47.104;15.432;2022-07-05T12:02:51;3.07;;;1.27;;
16115;SDS011;8162;47.104;15.432;2022-07-05T12:05:18;2.17;;;1.27;;
16115;SDS011;8162;47.104;15.432;2022-07-05T12:07:48;4.10;;;2.10;;
16115;SDS011;8162;47.104;15.432;2022-07-05T12:10:14;2.37;;;1.47;;
16115;SDS011;8162;47.104;15.432;2022-07-05T12:13:08;1.43;;;0.87;;
16115;SDS011;8162;47.104;15.432;2022-07-05T12:15:35;2.00;;;1.27;;
16115;SDS011;8162;47.104;15.432;2022-07-05T12:18:02;1.70;;;1.33;;
16115;SDS011;8162;47.104;15.432;2022-07-05T12:20:29;5.60;;;2.47;;
16115;SDS011;8162;47.104;15.432;2022-07-05T12:23:02;0.70;;;0.70;;
16115;SDS011;8162;47.104;15.432;2022-07-05T12:25:29;2.53;;;1.40;;
16115;SDS011;8162;47.104;15.432;2022-07-05T12:27:57;0.83;;;0.73;;
16115;SDS011;8162;47.104;15.432;2022-07-05T12:30:24;2.47;;;1.20;;
16115;SDS011;8162;47.104;15.432;2022-07-05T12:38:01;2.03;;;0.90;;
16115;SDS011;8162;47.104;15.432;2022-07-05T12:40:31;1.73;;;0.67;;
16115;SDS011;8162;47.104;15.432;2022-07-05T12:45:40;0.50;;;0.50;;
16115;SDS011;8162;47.104;15.432;2022-07-05T12:48:07;1.10;;;0.73;;
16115;SDS011;8162;47.104;15.432;2022-07-05T12:50:50;0.80;;;0.80;;
16115;SDS011;8162;47.104;15.432;2022-07-05T12:53:17;2.77;;;0.90;;
16115;SDS011;8162;47.104;15.432;2022-07-05T12:56:09;1.80;;;1.00;;
16115;SDS011;8162;47.104;15.432;2022-07-05T12:58:55;2.83;;;0.87;;
16115;SDS011;8162;47.104;15.432;2022-07-05T13:01:32;2.87;;;0.90;;
16115;SDS011;8162;47.104;15.432;2022-07-05T13:09:06;1.13;;;1.03;;
16115;SDS011;8162;47.104;15.432;2022-07-05T13:11:31;1.30;;;0.73;;
16115;SDS011;8162;47.104;15.432;2022-07-05T13:13:57;0.70;;;0.70;;
16115;SDS011;8162;47.104;15.432;2022-07-05T13:16:23;0.70;;;0.70;;
16115;SDS011;8162;47.104;15.432;2022-07-05T13:18:49;2.40;;;0.80;;
16115;SDS011;8162;47.104;15.432;2022-07-05T13:21:14;1.40;;;0.57;;
16115;SDS011;8162;47.104;15.432;2022-07-05T13:23:40;1.83;;;0.87;;
16115;SDS011;8162;47.104;15.432;2022-07-05T13:26:06;1.77;;;0.97;;
16115;SDS011;8162;47.104;15.432;2022-07-05T13:28:31;0.73;;;0.70;;
16115;SDS011;8162;47.104;15.432;2022-07-05T13:30:57;1.67;;;0.90;;
16115;SDS011;8162;47.104;15.432;2022-07-05T13:33:23;1.47;;;0.97;;
16115;SDS011;8162;47.104;15.432;2022-07-05T13:35:49;1.30;;;0.90;;
16115;SDS011;8162;47.104;15.432;2022-07-05T13:38:14;1.73;;;1.10;;
16115;SDS011;8162;47.104;15.432;2022-07-05T13:40:40;1.10;;;1.00;;
16115;SDS011;8162;47.104;15.432;2022-07-05T13:43:06;2.60;;;1.10;;
16115;SDS011;8162;47.104;15.432;2022-07-05T13:45:31;1.07;;;0.97;;
16115;SDS011;8162;47.104;15.432;2022-07-05T13:47:57;1.23;;;1.03;;
16115;SDS011;8162;47.104;15.432;2022-07-05T13:50:23;1.53;;;1.30;;
16115;SDS011;8162;47.104;15.432;2022-07-05T13:53:01;1.83;;;1.27;;
16115;SDS011;8162;47.104;15.432;2022-07-05T13:55:27;1.50;;;1.10;;
16115;SDS011;8162;47.104;15.432;2022-07-05T13:57:53;1.23;;;1.13;;
16115;SDS011;8162;47.104;15.432;2022-07-05T14:00:19;1.80;;;1.27;;
16115;SDS011;8162;47.104;15.432;2022-07-05T14:02:45;1.93;;;1.30;;
16115;SDS011;8162;47.104;15.432;2022-07-05T14:05:11;1.73;;;1.10;;
16115;SDS011;8162;47.104;15.432;2022-07-05T14:07:37;1.47;;;1.17;;
16115;SDS011;8162;47.104;15.432;2022-07-05T14:10:03;3.17;;;1.33;;
16115;SDS011;8162;47.104;15.432;2022-07-05T14:12:30;1.63;;;1.20;;
16115;SDS011;8162;47.104;15.432;2022-07-05T14:14:55;2.03;;;1.50;;
16115;SDS011;8162;47.104;15.432;2022-07-05T14:17:21;2.10;;;1.00;;
16115;SDS011;8162;47.104;15.432;2022-07-05T14:19:47;1.43;;;1.30;;
16115;SDS011;8162;47.104;15.432;2022-07-05T14:22:12;1.70;;;1.20;;
16115;SDS011;8162;47.104;15.432;2022-07-05T14:24:38;0.93;;;0.93;;
16115;SDS011;8162;47.104;15.432;2022-07-05T14:27:04;3.40;;;1.57;;
16115;SDS011;8162;47.104;15.432;2022-07-05T14:29:33;2.17;;;1.30;;
16115;SDS011;8162;47.104;15.432;2022-07-05T14:31:59;1.40;;;1.30;;
16115;SDS011;8162;47.104;15.432;2022-07-05T14:34:25;2.40;;;1.10;;
16115;SDS011;8162;47.104;15.432;2022-07-05T14:36:53;1.30;;;1.20;;
16115;SDS011;8162;47.104;15.432;2022-07-05T14:39:19;4.23;;;1.40;;
16115;SDS011;8162;47.104;15.432;2022-07-05T14:41:45;3.90;;;1.80;;
16115;SDS011;8162;47.104;15.432;2022-07-05T14:44:11;2.20;;;1.23;;
16115;SDS011;8162;47.104;15.432;2022-07-05T14:46:38;1.30;;;1.20;;
16115;SDS011;8162;47.104;15.432;2022-07-05T14:49:03;4.13;;;1.50;;
16115;SDS011;8162;47.104;15.432;2022-07-05T14:51:29;4.17;;;1.17;;
16115;SDS011;8162;47.104;15.432;2022-07-05T14:53:55;2.53;;;1.33;;
16115;SDS011;8162;47.104;15.432;2022-07-05T14:56:20;3.20;;;1.27;;
16115;SDS011;8162;47.104;15.432;2022-07-05T14:58:46;1.00;;;1.00;;
16115;SDS011;8162;47.104;15.432;2022-07-05T15:01:13;3.10;;;1.90;;
16115;SDS011;8162;47.104;15.432;2022-07-05T15:03:39;2.60;;;1.23;;
16115;SDS011;8162;47.104;15.432;2022-07-05T15:06:05;2.57;;;1.20;;
16115;SDS011;8162;47.104;15.432;2022-07-05T15:08:31;1.87;;;1.20;;
16115;SDS011;8162;47.104;15.432;2022-07-05T15:10:57;5.37;;;1.50;;
16115;SDS011;8162;47.104;15.432;2022-07-05T15:13:24;2.37;;;1.50;;
16115;SDS011;8162;47.104;15.432;2022-07-05T15:15:51;3.97;;;1.50;;
16115;SDS011;8162;47.104;15.432;2022-07-05T15:18:17;3.87;;;1.60;;
16115;SDS011;8162;47.104;15.432;2022-07-05T15:20:43;3.30;;;1.23;;